AXM523 VVTS-WMKK
Flight info
| Callsign | AXM523 |
|---|---|
| Flight time | N/A |
| Altitude | 36000 |
| Route | NIXIV5A NIXIV L643 CN M765 BITOD/N0466F360 M765 IGARI R208 VKR Y346 PULIP PULIP1J |
| Aircraft | A320/M-SDE3FGHIRWY/LB1 |
Departure
| Time | N/A |
|---|---|
| Airport | Tan Son Nhat International Airport (VVTS) |
Arrival
| Time | 2026-05-06 12:37 |
|---|---|
| Airport | Kuala Lumpur International Airport (WMKK) |
| Time | Latitude | Longitude | Altitude | Speed | Heading |
|---|---|---|---|---|---|
| 2026-05-06 12:31 | 2.51762 | 101.82534 | 3222 ft | 259 kts | 328° |
| 2026-05-06 12:31 | 2.53213 | 101.81562 | 3223 ft | 246 kts | 328° |
| 2026-05-06 12:32 | 2.54596 | 101.80642 | 3221 ft | 230 kts | 327° |
| 2026-05-06 12:32 | 2.55890 | 101.79775 | 3210 ft | 216 kts | 327° |
| 2026-05-06 12:32 | 2.57116 | 101.78952 | 3088 ft | 208 kts | 327° |
| 2026-05-06 12:32 | 2.58282 | 101.78171 | 2822 ft | 196 kts | 327° |
| 2026-05-06 12:33 | 2.59384 | 101.77431 | 2584 ft | 185 kts | 327° |
| 2026-05-06 12:33 | 2.60426 | 101.76732 | 2347 ft | 175 kts | 327° |
| 2026-05-06 12:33 | 2.61406 | 101.76075 | 2125 ft | 164 kts | 327° |
| 2026-05-06 12:33 | 2.62328 | 101.75457 | 1945 ft | 157 kts | 326° |
| 2026-05-06 12:34 | 2.63220 | 101.74858 | 1740 ft | 154 kts | 326° |
| 2026-05-06 12:34 | 2.64101 | 101.74268 | 1542 ft | 152 kts | 326° |
| 2026-05-06 12:34 | 2.64975 | 101.73681 | 1345 ft | 151 kts | 326° |
| 2026-05-06 12:34 | 2.65841 | 101.73101 | 1154 ft | 149 kts | 326° |
| 2026-05-06 12:35 | 2.66703 | 101.72523 | 962 ft | 149 kts | 327° |
| 2026-05-06 12:35 | 2.67560 | 101.71948 | 802 ft | 147 kts | 327° |
| 2026-05-06 12:35 | 2.68402 | 101.71384 | 632 ft | 144 kts | 328° |
| 2026-05-06 12:35 | 2.69231 | 101.70830 | 451 ft | 142 kts | 328° |
| 2026-05-06 12:36 | 2.70052 | 101.70285 | 281 ft | 141 kts | 328° |
| 2026-05-06 12:36 | 2.70867 | 101.69740 | 101 ft | 141 kts | 328° |
| 2026-05-06 12:36 | 2.71627 | 101.69230 | 39 ft | 114 kts | 327° |
| 2026-05-06 12:36 | 2.72141 | 101.68879 | 37 ft | 66 kts | 325° |
| 2026-05-06 12:37 | 2.72463 | 101.68664 | 37 ft | 35 kts | 330° |
| 2026-05-06 12:37 | 2.72673 | 101.68621 | 39 ft | 30 kts | 354° |
| 2026-05-06 12:37 | 2.72859 | 101.68594 | 36 ft | 26 kts | 342° |
| 2026-05-06 12:37 | 2.73015 | 101.68499 | 37 ft | 27 kts | 326° |
| 2026-05-06 12:38 | 2.73171 | 101.68393 | 38 ft | 28 kts | 326° |
| 2026-05-06 12:38 | 2.73335 | 101.68285 | 38 ft | 29 kts | 327° |
| 2026-05-06 12:38 | 2.73505 | 101.68171 | 38 ft | 30 kts | 326° |
| 2026-05-06 12:38 | 2.73664 | 101.68064 | 37 ft | 25 kts | 326° |
| 2026-05-06 12:39 | 2.73788 | 101.67978 | 38 ft | 20 kts | 325° |
| 2026-05-06 12:39 | 2.73894 | 101.67919 | 38 ft | 16 kts | 356° |
| 2026-05-06 12:39 | 2.73966 | 101.67998 | 40 ft | 17 kts | 59° |
| 2026-05-06 12:39 | 2.74030 | 101.68095 | 40 ft | 17 kts | 54° |
| 2026-05-06 12:40 | 2.74099 | 101.68197 | 42 ft | 13 kts | 57° |
| 2026-05-06 12:40 | 2.74130 | 101.68253 | 41 ft | 3 kts | 86° |
| 2026-05-06 12:40 | 2.74116 | 101.68268 | 42 ft | 4 kts | 142° |
| 2026-05-06 12:40 | 2.74084 | 101.68291 | 42 ft | 5 kts | 147° |
| 2026-05-06 12:41 | 2.74067 | 101.68301 | 42 ft | 1 kts | 147° |
| 2026-05-06 12:41 | 2.74065 | 101.68303 | 42 ft | 0 kts | 147° |